sensor_id;sensor_type;location;lat;lon;timestamp;pressure;altitude;pressure_sealevel;temperature;humidity
76404;BME280;65232;48.358;2.122;2023-07-28T00:00:14;100200.53;;;19.30;92.53
76404;BME280;65232;48.358;2.122;2023-07-28T00:00:43;100202.84;;;19.27;92.10
76404;BME280;65232;48.358;2.122;2023-07-28T00:01:09;100202.63;;;19.28;91.78
76404;BME280;65232;48.358;2.122;2023-07-28T00:01:34;100206.59;;;19.26;91.31
76404;BME280;65232;48.358;2.122;2023-07-28T00:02:00;100199.50;;;19.31;91.22
76404;BME280;65232;48.358;2.122;2023-07-28T00:02:25;100201.19;;;19.32;91.43
76404;BME280;65232;48.358;2.122;2023-07-28T00:02:51;100201.03;;;19.41;90.97
76404;BME280;65232;48.358;2.122;2023-07-28T00:03:16;100202.84;;;19.33;91.03
76404;BME280;65232;48.358;2.122;2023-07-28T00:03:41;100207.25;;;19.34;90.90
76404;BME280;65232;48.358;2.122;2023-07-28T00:04:07;100202.22;;;19.31;90.81
76404;BME280;65232;48.358;2.122;2023-07-28T00:04:35;100208.06;;;19.28;91.18
76404;BME280;65232;48.358;2.122;2023-07-28T00:05:01;100197.22;;;19.28;91.48
76404;BME280;65232;48.358;2.122;2023-07-28T00:05:26;100204.94;;;19.31;91.52
76404;BME280;65232;48.358;2.122;2023-07-28T00:05:52;100200.16;;;19.33;91.77
76404;BME280;65232;48.358;2.122;2023-07-28T00:06:17;100200.97;;;19.27;92.10
76404;BME280;65232;48.358;2.122;2023-07-28T00:06:43;100204.72;;;19.26;91.40
76404;BME280;65232;48.358;2.122;2023-07-28T00:07:08;100206.59;;;19.26;91.35
76404;BME280;65232;48.358;2.122;2023-07-28T00:07:34;100201.34;;;19.24;91.81
76404;BME280;65232;48.358;2.122;2023-07-28T00:08:01;100202.38;;;19.23;91.79
76404;BME280;65232;48.358;2.122;2023-07-28T00:08:26;100208.25;;;19.27;92.02
76404;BME280;65232;48.358;2.122;2023-07-28T00:08:52;100206.81;;;19.31;91.97
76404;BME280;65232;48.358;2.122;2023-07-28T00:09:18;100204.06;;;19.24;91.60
76404;BME280;65232;48.358;2.122;2023-07-28T00:09:43;100212.03;;;19.32;90.69
76404;BME280;65232;48.358;2.122;2023-07-28T00:10:10;100210.81;;;19.35;90.17
76404;BME280;65232;48.358;2.122;2023-07-28T00:10:42;100210.03;;;19.41;90.41
76404;BME280;65232;48.358;2.122;2023-07-28T00:11:11;100208.16;;;19.42;90.11
76404;BME280;65232;48.358;2.122;2023-07-28T00:11:40;100206.28;;;19.42;90.40
76404;BME280;65232;48.358;2.122;2023-07-28T00:12:05;100204.34;;;19.36;90.49
76404;BME280;65232;48.358;2.122;2023-07-28T00:12:31;100206.66;;;19.39;90.67
76404;BME280;65232;48.358;2.122;2023-07-28T00:12:57;100210.22;;;19.40;90.55
76404;BME280;65232;48.358;2.122;2023-07-28T00:13:22;100215.00;;;19.37;90.61
76404;BME280;65232;48.358;2.122;2023-07-28T00:13:48;100214.16;;;19.37;90.83
76404;BME280;65232;48.358;2.122;2023-07-28T00:14:13;100215.84;;;19.38;91.05
76404;BME280;65232;48.358;2.122;2023-07-28T00:14:39;100215.41;;;19.34;91.77
76404;BME280;65232;48.358;2.122;2023-07-28T00:15:05;100209.94;;;19.28;92.10
76404;BME280;65232;48.358;2.122;2023-07-28T00:15:31;100207.41;;;19.26;91.91
76404;BME280;65232;48.358;2.122;2023-07-28T00:15:56;100212.00;;;19.26;92.13
76404;BME280;65232;48.358;2.122;2023-07-28T00:16:22;100212.66;;;19.28;91.42
76404;BME280;65232;48.358;2.122;2023-07-28T00:16:47;100212.66;;;19.28;91.50
76404;BME280;65232;48.358;2.122;2023-07-28T00:17:12;100206.38;;;19.27;91.47
76404;BME280;65232;48.358;2.122;2023-07-28T00:17:38;100216.78;;;19.24;91.40
76404;BME280;65232;48.358;2.122;2023-07-28T00:18:03;100208.00;;;19.22;91.55
76404;BME280;65232;48.358;2.122;2023-07-28T00:18:29;100208.00;;;19.22;91.86
76404;BME280;65232;48.358;2.122;2023-07-28T00:18:54;100207.22;;;19.28;91.77
76404;BME280;65232;48.358;2.122;2023-07-28T00:19:20;100214.72;;;19.26;91.49
76404;BME280;65232;48.358;2.122;2023-07-28T00:19:49;100212.44;;;19.29;91.43
76404;BME280;65232;48.358;2.122;2023-07-28T00:20:14;100210.16;;;19.33;91.59
76404;BME280;65232;48.358;2.122;2023-07-28T00:20:40;100208.28;;;19.33;90.86
76404;BME280;65232;48.358;2.122;2023-07-28T00:21:05;100211.00;;;19.33;90.77
76404;BME280;65232;48.358;2.122;2023-07-28T00:21:31;100204.28;;;19.29;91.11
76404;BME280;65232;48.358;2.122;2023-07-28T00:21:56;100211.38;;;19.30;90.91
76404;BME280;65232;48.358;2.122;2023-07-28T00:22:22;100211.19;;;19.32;91.02
76404;BME280;65232;48.358;2.122;2023-07-28T00:22:47;100210.78;;;19.28;91.50
76404;BME280;65232;48.358;2.122;2023-07-28T00:23:13;100208.69;;;19.30;91.07
76404;BME280;65232;48.358;2.122;2023-07-28T00:23:38;100211.00;;;19.33;91.44
76404;BME280;65232;48.358;2.122;2023-07-28T00:24:04;100212.09;;;19.39;90.57
76404;BME280;65232;48.358;2.122;2023-07-28T00:24:29;100217.13;;;19.42;90.55
76404;BME280;65232;48.358;2.122;2023-07-28T00:24:55;100205.81;;;19.38;90.40
76404;BME280;65232;48.358;2.122;2023-07-28T00:25:20;100215.44;;;19.41;90.70
76404;BME280;65232;48.358;2.122;2023-07-28T00:25:47;100212.28;;;19.37;90.21
76404;BME280;65232;48.358;2.122;2023-07-28T00:26:13;100213.31;;;19.36;90.62
76404;BME280;65232;48.358;2.122;2023-07-28T00:26:38;100205.38;;;19.35;90.46
76404;BME280;65232;48.358;2.122;2023-07-28T00:27:04;100211.44;;;19.37;90.46
76404;BME280;65232;48.358;2.122;2023-07-28T00:27:30;100210.63;;;19.36;90.34
76404;BME280;65232;48.358;2.122;2023-07-28T00:27:55;100211.06;;;19.40;90.54
76404;BME280;65232;48.358;2.122;2023-07-28T00:28:21;100215.44;;;19.41;90.17
76404;BME280;65232;48.358;2.122;2023-07-28T00:28:46;100208.78;;;19.44;90.56
76404;BME280;65232;48.358;2.122;2023-07-28T00:29:12;100211.25;;;19.38;90.50
76404;BME280;65232;48.358;2.122;2023-07-28T00:29:38;100213.53;;;19.35;90.00
76404;BME280;65232;48.358;2.122;2023-07-28T00:30:04;100211.81;;;19.27;90.97
76404;BME280;65232;48.358;2.122;2023-07-28T00:30:30;100215.41;;;19.34;90.76
76404;BME280;65232;48.358;2.122;2023-07-28T00:30:56;100211.25;;;19.38;90.34
76404;BME280;65232;48.358;2.122;2023-07-28T00:31:23;100216.69;;;19.38;90.40
76404;BME280;65232;48.358;2.122;2023-07-28T00:31:48;100210.22;;;19.40;90.26
76404;BME280;65232;48.358;2.122;2023-07-28T00:32:14;100213.56;;;19.42;89.89
76404;BME280;65232;48.358;2.122;2023-07-28T00:32:39;100207.81;;;19.51;89.42
76404;BME280;65232;48.358;2.122;2023-07-28T00:33:05;100209.69;;;19.51;89.51
76404;BME280;65232;48.358;2.122;2023-07-28T00:33:30;100211.88;;;19.68;89.17
76404;BME280;65232;48.358;2.122;2023-07-28T00:33:56;100209.16;;;19.68;88.98
76404;BME280;65232;48.358;2.122;2023-07-28T00:34:22;100205.16;;;19.58;89.44
76404;BME280;65232;48.358;2.122;2023-07-28T00:34:48;100207.41;;;19.54;89.63
76404;BME280;65232;48.358;2.122;2023-07-28T00:35:13;100209.41;;;19.46;89.93
76404;BME280;65232;48.358;2.122;2023-07-28T00:35:39;100212.13;;;19.46;90.28
76404;BME280;65232;48.358;2.122;2023-07-28T00:36:04;100206.78;;;19.52;90.51
76404;BME280;65232;48.358;2.122;2023-07-28T00:36:32;100208.72;;;19.58;89.49
76404;BME280;65232;48.358;2.122;2023-07-28T00:36:58;100205.28;;;19.50;89.40
76404;BME280;65232;48.358;2.122;2023-07-28T00:37:23;100205.84;;;19.45;89.91
76404;BME280;65232;48.358;2.122;2023-07-28T00:37:48;100203.78;;;19.47;89.12
76404;BME280;65232;48.358;2.122;2023-07-28T00:38:14;100202.94;;;19.47;89.26
76404;BME280;65232;48.358;2.122;2023-07-28T00:38:40;100208.47;;;19.53;88.95
76404;BME280;65232;48.358;2.122;2023-07-28T00:39:05;100199.50;;;19.59;88.83
76404;BME280;65232;48.358;2.122;2023-07-28T00:39:32;100196.78;;;19.59;89.13
76404;BME280;65232;48.358;2.122;2023-07-28T00:39:58;100202.63;;;19.56;88.88
76404;BME280;65232;48.358;2.122;2023-07-28T00:40:24;100206.78;;;19.52;89.24
76404;BME280;65232;48.358;2.122;2023-07-28T00:40:49;100199.59;;;19.45;89.09
76404;BME280;65232;48.358;2.122;2023-07-28T00:41:15;100203.13;;;19.45;89.39
76404;BME280;65232;48.358;2.122;2023-07-28T00:41:40;100208.16;;;19.42;89.49
76404;BME280;65232;48.358;2.122;2023-07-28T00:42:06;100208.75;;;19.37;89.93
76404;BME280;65232;48.358;2.122;2023-07-28T00:42:31;100200.00;;;19.42;90.02
76404;BME280;65232;48.358;2.122;2023-07-28T00:42:57;100206.69;;;19.46;89.70
76404;BME280;65232;48.358;2.122;2023-07-28T00:43:22;100206.28;;;19.42;89.97
76404;BME280;65232;48.358;2.122;2023-07-28T00:43:48;100206.28;;;19.42;90.09
76404;BME280;65232;48.358;2.122;2023-07-28T00:44:13;100207.91;;;19.36;90.57
76404;BME280;65232;48.358;2.122;2023-07-28T00:44:40;100202.47;;;19.36;90.25
76404;BME280;65232;48.358;2.122;2023-07-28T00:45:06;100205.53;;;19.27;90.54
76404;BME280;65232;48.358;2.122;2023-07-28T00:45:33;100199.94;;;19.28;90.99
76404;BME280;65232;48.358;2.122;2023-07-28T00:45:58;100200.16;;;19.33;90.66
76404;BME280;65232;48.358;2.122;2023-07-28T00:46:24;100202.66;;;19.35;90.84
76404;BME280;65232;48.358;2.122;2023-07-28T00:46:50;100204.94;;;19.31;90.85
76404;BME280;65232;48.358;2.122;2023-07-28T00:47:16;100201.63;;;19.36;90.32
76404;BME280;65232;48.358;2.122;2023-07-28T00:47:41;100197.69;;;19.38;90.32
76404;BME280;65232;48.358;2.122;2023-07-28T00:48:11;100201.63;;;19.36;90.42
76404;BME280;65232;48.358;2.122;2023-07-28T00:48:37;100195.38;;;19.35;90.72
76404;BME280;65232;48.358;2.122;2023-07-28T00:49:03;100193.22;;;19.31;91.19
76404;BME280;65232;48.358;2.122;2023-07-28T00:49:30;100206.41;;;19.34;91.13
76404;BME280;65232;48.358;2.122;2023-07-28T00:49:55;100198.84;;;19.29;91.61
76404;BME280;65232;48.358;2.122;2023-07-28T00:50:21;100190.94;;;19.28;91.59
76404;BME280;65232;48.358;2.122;2023-07-28T00:50:48;100191.81;;;19.35;91.36
76404;BME280;65232;48.358;2.122;2023-07-28T00:51:14;100194.31;;;19.36;91.12
76404;BME280;65232;48.358;2.122;2023-07-28T00:51:39;100190.09;;;19.27;90.61
76404;BME280;65232;48.358;2.122;2023-07-28T00:52:07;100198.91;;;19.36;90.67
76404;BME280;65232;48.358;2.122;2023-07-28T00:52:33;100192.00;;;19.33;91.08
76404;BME280;65232;48.358;2.122;2023-07-28T00:52:58;100197.88;;;19.37;90.83
76404;BME280;65232;48.358;2.122;2023-07-28T00:53:24;100195.34;;;19.29;91.09
76404;BME280;65232;48.358;2.122;2023-07-28T00:53:50;100184.88;;;19.26;90.66
76404;BME280;65232;48.358;2.122;2023-07-28T00:54:18;100198.66;;;19.31;90.79
76404;BME280;65232;48.358;2.122;2023-07-28T00:54:44;100196.03;;;19.44;89.50
76404;BME280;65232;48.358;2.122;2023-07-28T00:55:09;100193.75;;;19.41;89.51
76404;BME280;65232;48.358;2.122;2023-07-28T00:55:35;100190.50;;;19.52;89.67
76404;BME280;65232;48.358;2.122;2023-07-28T00:56:02;100197.22;;;19.56;89.35
76404;BME280;65232;48.358;2.122;2023-07-28T00:56:28;100192.56;;;19.50;89.23
76404;BME280;65232;48.358;2.122;2023-07-28T00:56:56;100194.44;;;19.50;89.76
76404;BME280;65232;48.358;2.122;2023-07-28T00:57:22;100193.31;;;19.44;89.77
76404;BME280;65232;48.358;2.122;2023-07-28T00:57:48;100196.25;;;19.43;89.93
76404;BME280;65232;48.358;2.122;2023-07-28T00:58:13;100189.00;;;19.50;89.65
76404;BME280;65232;48.358;2.122;2023-07-28T00:58:39;100183.84;;;19.55;89.67
76404;BME280;65232;48.358;2.122;2023-07-28T00:59:05;100186.34;;;19.56;89.96
76404;BME280;65232;48.358;2.122;2023-07-28T00:59:30;100192.63;;;19.57;89.76
76404;BME280;65232;48.358;2.122;2023-07-28T00:59:56;100200.72;;;19.50;89.86
76404;BME280;65232;48.358;2.122;2023-07-28T01:00:22;100193.59;;;19.49;89.63
76404;BME280;65232;48.358;2.122;2023-07-28T01:00:47;100194.59;;;19.48;89.52
76404;BME280;65232;48.358;2.122;2023-07-28T01:01:12;100196.44;;;19.41;89.75
76404;BME280;65232;48.358;2.122;2023-07-28T01:01:38;100192.66;;;19.35;89.81
76404;BME280;65232;48.358;2.122;2023-07-28T01:02:04;100194.69;;;19.27;91.05
76404;BME280;65232;48.358;2.122;2023-07-28T01:02:29;100196.78;;;19.31;91.20
76404;BME280;65232;48.358;2.122;2023-07-28T01:02:55;100199.31;;;19.33;91.01
76404;BME280;65232;48.358;2.122;2023-07-28T01:03:22;100199.28;;;19.26;90.97
76404;BME280;65232;48.358;2.122;2023-07-28T01:03:48;100195.47;;;19.21;91.18
76404;BME280;65232;48.358;2.122;2023-07-28T01:04:14;100201.94;;;19.20;91.21
76404;BME280;65232;48.358;2.122;2023-07-28T01:04:40;100197.78;;;19.24;91.50
76404;BME280;65232;48.358;2.122;2023-07-28T01:05:05;100204.91;;;19.25;91.48
76404;BME280;65232;48.358;2.122;2023-07-28T01:05:48;100195.09;;;19.24;91.55
76404;BME280;65232;48.358;2.122;2023-07-28T01:06:47;100191.78;;;19.28;91.28
76404;BME280;65232;48.358;2.122;2023-07-28T01:07:27;100186.97;;;19.30;91.09
76404;BME280;65232;48.358;2.122;2023-07-28T01:08:09;100193.88;;;19.33;90.94
76404;BME280;65232;48.358;2.122;2023-07-28T01:08:47;100189.69;;;19.30;91.42
76404;BME280;65232;48.358;2.122;2023-07-28T01:09:16;100188.44;;;19.33;90.85
76404;BME280;65232;48.358;2.122;2023-07-28T01:09:57;100182.19;;;19.32;91.31
76404;BME280;65232;48.358;2.122;2023-07-28T01:10:31;100191.13;;;19.26;91.45
76404;BME280;65232;48.358;2.122;2023-07-28T01:10:57;100190.31;;;19.26;90.81
76404;BME280;65232;48.358;2.122;2023-07-28T01:11:23;100188.63;;;19.25;91.46
76404;BME280;65232;48.358;2.122;2023-07-28T01:11:55;100190.09;;;19.27;91.86
76404;BME280;65232;48.358;2.122;2023-07-28T01:12:23;100194.31;;;19.36;91.59
76404;BME280;65232;48.358;2.122;2023-07-28T01:12:49;100195.09;;;19.30;92.03
76404;BME280;65232;48.358;2.122;2023-07-28T01:13:14;100188.63;;;19.25;92.22
76404;BME280;65232;48.358;2.122;2023-07-28T01:13:40;100189.47;;;19.25;92.35
76404;BME280;65232;48.358;2.122;2023-07-28T01:14:05;100194.53;;;19.35;91.31
76404;BME280;65232;48.358;2.122;2023-07-28T01:14:31;100192.25;;;19.38;90.91
76404;BME280;65232;48.358;2.122;2023-07-28T01:14:56;100196.31;;;19.49;90.33
76404;BME280;65232;48.358;2.122;2023-07-28T01:15:22;100195.63;;;19.41;90.29
76404;BME280;65232;48.358;2.122;2023-07-28T01:15:48;100194.97;;;19.38;90.56
76404;BME280;65232;48.358;2.122;2023-07-28T01:16:13;100191.41;;;19.38;90.17
76404;BME280;65232;48.358;2.122;2023-07-28T01:16:39;100188.25;;;19.34;90.34
76404;BME280;65232;48.358;2.122;2023-07-28T01:17:05;100191.16;;;19.33;90.94
76404;BME280;65232;48.358;2.122;2023-07-28T01:17:32;100185.09;;;19.31;91.21
76404;BME280;65232;48.358;2.122;2023-07-28T01:17:57;100182.16;;;19.26;91.54
76404;BME280;65232;48.358;2.122;2023-07-28T01:18:23;100181.97;;;19.27;91.20
76404;BME280;65232;48.358;2.122;2023-07-28T01:18:50;100182.16;;;19.26;91.52
76404;BME280;65232;48.358;2.122;2023-07-28T01:19:20;100188.66;;;19.31;91.00
76404;BME280;65232;48.358;2.122;2023-07-28T01:19:46;100185.06;;;19.24;91.58
76404;BME280;65232;48.358;2.122;2023-07-28T01:20:12;100186.94;;;19.24;91.81
76404;BME280;65232;48.358;2.122;2023-07-28T01:20:39;100184.03;;;19.25;91.90
76404;BME280;65232;48.358;2.122;2023-07-28T01:21:08;100186.38;;;19.35;91.04
76404;BME280;65232;48.358;2.122;2023-07-28T01:21:34;100179.06;;;19.29;90.54
76404;BME280;65232;48.358;2.122;2023-07-28T01:23:20;100181.78;;;19.35;90.62
76404;BME280;65232;48.358;2.122;2023-07-28T01:23:59;100175.34;;;19.36;90.50
76404;BME280;65232;48.358;2.122;2023-07-28T01:26:11;100174.25;;;19.31;90.29
76404;BME280;65232;48.358;2.122;2023-07-28T01:26:37;100174.41;;;19.23;91.27
76404;BME280;65232;48.358;2.122;2023-07-28T01:27:04;100170.59;;;19.17;91.73
76404;BME280;65232;48.358;2.122;2023-07-28T01:27:30;100172.94;;;19.20;91.23
76404;BME280;65232;48.358;2.122;2023-07-28T01:27:57;100164.34;;;19.17;91.53
76404;BME280;65232;48.358;2.122;2023-07-28T01:28:24;100173.31;;;19.17;91.60
76404;BME280;65232;48.358;2.122;2023-07-28T01:28:49;100172.91;;;19.14;91.75
76404;BME280;65232;48.358;2.122;2023-07-28T01:29:15;100175.38;;;19.15;91.88
76404;BME280;65232;48.358;2.122;2023-07-28T01:29:41;100168.09;;;19.16;91.98
76404;BME280;65232;48.358;2.122;2023-07-28T01:30:07;100171.25;;;19.19;91.52
76404;BME280;65232;48.358;2.122;2023-07-28T01:30:33;100178.75;;;19.17;91.77
76404;BME280;65232;48.358;2.122;2023-07-28T01:31:00;100176.88;;;19.18;91.39
76404;BME280;65232;48.358;2.122;2023-07-28T01:31:26;100173.50;;;19.16;91.61
76404;BME280;65232;48.358;2.122;2023-07-28T01:31:51;100172.47;;;19.17;91.44
76404;BME280;65232;48.358;2.122;2023-07-28T01:32:17;100176.03;;;19.17;91.96
76404;BME280;65232;48.358;2.122;2023-07-28T01:32:43;100171.91;;;19.21;91.69
76404;BME280;65232;48.358;2.122;2023-07-28T01:33:08;100169.19;;;19.21;91.87
76404;BME280;65232;48.358;2.122;2023-07-28T01:33:34;100180.31;;;19.33;91.23
76404;BME280;65232;48.358;2.122;2023-07-28T01:34:00;100169.22;;;19.28;90.77
76404;BME280;65232;48.358;2.122;2023-07-28T01:34:25;100170.50;;;19.32;90.37
76404;BME280;65232;48.358;2.122;2023-07-28T01:34:51;100168.81;;;19.31;90.36
76404;BME280;65232;48.358;2.122;2023-07-28T01:35:17;100167.56;;;19.27;90.68
76404;BME280;65232;48.358;2.122;2023-07-28T01:35:42;100170.69;;;19.30;90.79
76404;BME280;65232;48.358;2.122;2023-07-28T01:36:08;100167.00;;;19.38;90.50
76404;BME280;65232;48.358;2.122;2023-07-28T01:36:33;100177.66;;;19.40;90.07
76404;BME280;65232;48.358;2.122;2023-07-28T01:36:59;100172.81;;;19.35;90.29
76404;BME280;65232;48.358;2.122;2023-07-28T01:37:24;100173.81;;;19.27;90.70
76404;BME280;65232;48.358;2.122;2023-07-28T01:37:50;100179.63;;;19.24;91.20
76404;BME280;65232;48.358;2.122;2023-07-28T01:38:18;100183.19;;;19.25;91.18
76404;BME280;65232;48.358;2.122;2023-07-28T01:38:44;100178.53;;;19.19;90.87
76404;BME280;65232;48.358;2.122;2023-07-28T01:39:09;100183.34;;;19.17;91.48
76404;BME280;65232;48.358;2.122;2023-07-28T01:39:35;100182.91;;;19.13;91.67
76404;BME280;65232;48.358;2.122;2023-07-28T01:40:00;100186.47;;;19.14;91.78
76404;BME280;65232;48.358;2.122;2023-07-28T01:40:26;100177.47;;;19.13;91.95
76404;BME280;65232;48.358;2.122;2023-07-28T01:40:52;100177.25;;;19.15;92.35
76404;BME280;65232;48.358;2.122;2023-07-28T01:41:17;100171.84;;;19.15;92.52
76404;BME280;65232;48.358;2.122;2023-07-28T01:41:43;100171.03;;;19.14;92.33
76404;BME280;65232;48.358;2.122;2023-07-28T01:42:09;100175.38;;;19.15;91.72
76404;BME280;65232;48.358;2.122;2023-07-28T01:42:35;100172.06;;;19.13;92.08
76404;BME280;65232;48.358;2.122;2023-07-28T01:43:00;100177.25;;;19.15;92.14
76404;BME280;65232;48.358;2.122;2023-07-28T01:43:26;100183.78;;;19.20;91.81
76404;BME280;65232;48.358;2.122;2023-07-28T01:43:51;100178.34;;;19.20;91.67
76404;BME280;65232;48.358;2.122;2023-07-28T01:44:20;100171.25;;;19.19;91.35
76404;BME280;65232;48.358;2.122;2023-07-28T01:44:46;100177.25;;;19.15;91.88
76404;BME280;65232;48.358;2.122;2023-07-28T01:45:11;100182.06;;;19.13;92.04
76404;BME280;65232;48.358;2.122;2023-07-28T01:45:37;100183.75;;;19.14;91.63
76404;BME280;65232;48.358;2.122;2023-07-28T01:46:02;100184.38;;;19.16;91.63
76404;BME280;65232;48.358;2.122;2023-07-28T01:46:28;100182.50;;;19.16;91.85
76404;BME280;65232;48.358;2.122;2023-07-28T01:46:53;100192.19;;;19.25;91.16
76404;BME280;65232;48.358;2.122;2023-07-28T01:47:19;100180.88;;;19.22;91.23
76404;BME280;65232;48.358;2.122;2023-07-28T01:47:44;100187.97;;;19.23;91.19
76404;BME280;65232;48.358;2.122;2023-07-28T01:48:10;100184.03;;;19.25;90.80
76404;BME280;65232;48.358;2.122;2023-07-28T01:48:35;100191.13;;;19.26;91.55
76404;BME280;65232;48.358;2.122;2023-07-28T01:49:01;100181.97;;;19.27;91.80
76404;BME280;65232;48.358;2.122;2023-07-28T01:49:26;100188.84;;;19.30;91.72
76404;BME280;65232;48.358;2.122;2023-07-28T01:49:52;100187.19;;;19.29;91.66
76404;BME280;65232;48.358;2.122;2023-07-28T01:50:17;100187.13;;;19.22;91.56
76404;BME280;65232;48.358;2.122;2023-07-28T01:50:43;100185.84;;;19.18;92.13
76404;BME280;65232;48.358;2.122;2023-07-28T01:51:10;100183.34;;;19.17;91.74
76404;BME280;65232;48.358;2.122;2023-07-28T01:51:36;100187.72;;;19.18;91.74
76404;BME280;65232;48.358;2.122;2023-07-28T01:52:01;100184.63;;;19.21;91.51
76404;BME280;65232;48.358;2.122;2023-07-28T01:52:27;100179.44;;;19.26;91.15
76404;BME280;65232;48.358;2.122;2023-07-28T01:52:52;100188.44;;;19.33;90.74
76404;BME280;65232;48.358;2.122;2023-07-28T01:53:18;100188.84;;;19.30;90.52
76404;BME280;65232;48.358;2.122;2023-07-28T01:53:43;100182.81;;;19.28;90.85
76404;BME280;65232;48.358;2.122;2023-07-28T01:54:09;100186.34;;;19.28;90.56
76404;BME280;65232;48.358;2.122;2023-07-28T01:54:34;100182.56;;;19.29;90.85
76404;BME280;65232;48.358;2.122;2023-07-28T01:55:00;100184.22;;;19.24;91.33
76404;BME280;65232;48.358;2.122;2023-07-28T01:55:26;100181.97;;;19.27;91.14
76404;BME280;65232;48.358;2.122;2023-07-28T01:55:51;100183.00;;;19.26;90.96
76404;BME280;65232;48.358;2.122;2023-07-28T01:56:17;100182.38;;;19.31;90.85
76404;BME280;65232;48.358;2.122;2023-07-28T01:56:42;100179.66;;;19.31;91.10
76404;BME280;65232;48.358;2.122;2023-07-28T01:57:08;100186.56;;;19.33;90.73
76404;BME280;65232;48.358;2.122;2023-07-28T01:57:34;100183.22;;;19.31;90.86
76404;BME280;65232;48.358;2.122;2023-07-28T01:58:01;100177.59;;;19.33;90.38
76404;BME280;65232;48.358;2.122;2023-07-28T01:58:27;100181.16;;;19.33;90.18
76404;BME280;65232;48.358;2.122;2023-07-28T01:58:53;100182.38;;;19.31;90.83
76404;BME280;65232;48.358;2.122;2023-07-28T01:59:18;100183.88;;;19.33;90.65
76404;BME280;65232;48.358;2.122;2023-07-28T01:59:45;100177.78;;;19.31;90.79
76404;BME280;65232;48.358;2.122;2023-07-28T02:00:11;100181.97;;;19.27;91.16
76404;BME280;65232;48.358;2.122;2023-07-28T02:00:40;100185.06;;;19.24;91.87
76404;BME280;65232;48.358;2.122;2023-07-28T02:01:05;100182.75;;;19.21;92.23
76404;BME280;65232;48.358;2.122;2023-07-28T02:01:31;100176.28;;;19.22;92.17
76404;BME280;65232;48.358;2.122;2023-07-28T02:01:56;100181.72;;;19.22;91.62
76404;BME280;65232;48.358;2.122;2023-07-28T02:02:23;100175.63;;;19.20;92.13
76404;BME280;65232;48.358;2.122;2023-07-28T02:02:49;100171.69;;;19.23;92.62
76404;BME280;65232;48.358;2.122;2023-07-28T02:03:14;100176.13;;;19.30;91.64
76404;BME280;65232;48.358;2.122;2023-07-28T02:03:40;100178.00;;;19.30;91.80
76404;BME280;65232;48.358;2.122;2023-07-28T02:04:05;100172.16;;;19.26;91.48
76404;BME280;65232;48.358;2.122;2023-07-28T02:04:31;100180.94;;;19.28;91.60
76404;BME280;65232;48.358;2.122;2023-07-28T02:04:56;100182.38;;;19.31;91.36
76404;BME280;65232;48.358;2.122;2023-07-28T02:05:21;100185.34;;;19.36;90.72
76404;BME280;65232;48.358;2.122;2023-07-28T02:05:47;100180.13;;;19.34;90.52
76404;BME280;65232;48.358;2.122;2023-07-28T02:06:12;100181.78;;;19.35;90.50
76404;BME280;65232;48.358;2.122;2023-07-28T02:06:38;100183.03;;;19.33;91.29
76404;BME280;65232;48.358;2.122;2023-07-28T02:07:03;100179.53;;;19.39;91.41
76404;BME280;65232;48.358;2.122;2023-07-28T02:07:29;100173.47;;;19.37;90.72
76404;BME280;65232;48.358;2.122;2023-07-28T02:07:57;100177.84;;;19.38;90.86
76404;BME280;65232;48.358;2.122;2023-07-28T02:08:22;100180.38;;;19.40;90.63
76404;BME280;65232;48.358;2.122;2023-07-28T02:08:48;100180.56;;;19.38;90.88
76404;BME280;65232;48.358;2.122;2023-07-28T02:09:13;100184.94;;;19.39;90.84
76404;BME280;65232;48.358;2.122;2023-07-28T02:09:39;100178.03;;;19.36;90.73
76404;BME280;65232;48.358;2.122;2023-07-28T02:10:04;100184.13;;;19.45;90.64
76404;BME280;65232;48.358;2.122;2023-07-28T02:10:30;100177.88;;;19.45;90.31
76404;BME280;65232;48.358;2.122;2023-07-28T02:10:56;100187.69;;;19.46;89.89
76404;BME280;65232;48.358;2.122;2023-07-28T02:11:21;100180.81;;;19.43;90.25
76404;BME280;65232;48.358;2.122;2023-07-28T02:11:47;100184.56;;;19.42;90.38
76404;BME280;65232;48.358;2.122;2023-07-28T02:12:12;100184.97;;;19.46;90.06
76404;BME280;65232;48.358;2.122;2023-07-28T02:12:38;100181.41;;;19.38;90.48
76404;BME280;65232;48.358;2.122;2023-07-28T02:13:04;100182.25;;;19.39;90.04
76404;BME280;65232;48.358;2.122;2023-07-28T02:13:29;100179.63;;;19.52;89.52
76404;BME280;65232;48.358;2.122;2023-07-28T02:13:55;100191.06;;;19.48;89.77
76404;BME280;65232;48.358;2.122;2023-07-28T02:14:20;100190.88;;;19.49;89.81
76404;BME280;65232;48.358;2.122;2023-07-28T02:14:46;100187.31;;;19.49;89.71
76404;BME280;65232;48.358;2.122;2023-07-28T02:15:11;100183.59;;;19.50;89.68
76404;BME280;65232;48.358;2.122;2023-07-28T02:15:38;100192.28;;;19.45;90.28
76404;BME280;65232;48.358;2.122;2023-07-28T02:16:03;100187.50;;;19.47;90.35
76404;BME280;65232;48.358;2.122;2023-07-28T02:16:29;100189.16;;;19.42;90.99
76404;BME280;65232;48.358;2.122;2023-07-28T02:16:56;100186.44;;;19.42;90.38
76404;BME280;65232;48.358;2.122;2023-07-28T02:17:21;100191.66;;;19.43;90.26
76404;BME280;65232;48.358;2.122;2023-07-28T02:17:47;100188.44;;;19.61;89.39
76404;BME280;65232;48.358;2.122;2023-07-28T02:18:12;100191.19;;;19.67;88.85
76404;BME280;65232;48.358;2.122;2023-07-28T02:18:37;100187.69;;;19.74;88.82
76404;BME280;65232;48.358;2.122;2023-07-28T02:19:03;100181.78;;;19.63;88.49
76404;BME280;65232;48.358;2.122;2023-07-28T02:19:28;100192.25;;;19.66;88.35
76404;BME280;65232;48.358;2.122;2023-07-28T02:19:54;100189.34;;;19.75;88.18
76404;BME280;65232;48.358;2.122;2023-07-28T02:20:19;100190.13;;;19.62;88.37
76404;BME280;65232;48.358;2.122;2023-07-28T02:20:48;100190.09;;;19.55;89.42